sensor_id;sensor_type;location;lat;lon;timestamp;temperature;humidity
14670;DHT22;7423;48.722;9.350;2023-07-20T00:00:58;24.80;89.10
14670;DHT22;7423;48.722;9.350;2023-07-20T00:03:25;24.70;89.10
14670;DHT22;7423;48.722;9.350;2023-07-20T00:05:52;24.60;90.00
14670;DHT22;7423;48.722;9.350;2023-07-20T00:08:19;24.60;89.50
14670;DHT22;7423;48.722;9.350;2023-07-20T00:10:46;24.60;89.70
14670;DHT22;7423;48.722;9.350;2023-07-20T00:13:13;24.70;89.90
14670;DHT22;7423;48.722;9.350;2023-07-20T00:15:42;24.60;89.90
14670;DHT22;7423;48.722;9.350;2023-07-20T00:18:09;24.30;89.80
14670;DHT22;7423;48.722;9.350;2023-07-20T00:20:36;24.40;90.00
14670;DHT22;7423;48.722;9.350;2023-07-20T00:23:03;24.40;89.60
14670;DHT22;7423;48.722;9.350;2023-07-20T00:25:30;24.30;87.70
14670;DHT22;7423;48.722;9.350;2023-07-20T00:27:57;24.30;88.50
14670;DHT22;7423;48.722;9.350;2023-07-20T00:30:24;24.20;88.40
14670;DHT22;7423;48.722;9.350;2023-07-20T00:32:51;24.20;87.60
14670;DHT22;7423;48.722;9.350;2023-07-20T00:35:18;24.20;87.70
14670;DHT22;7423;48.722;9.350;2023-07-20T00:37:45;24.20;87.90
14670;DHT22;7423;48.722;9.350;2023-07-20T00:40:12;24.10;87.60
14670;DHT22;7423;48.722;9.350;2023-07-20T00:42:39;24.10;87.00
14670;DHT22;7423;48.722;9.350;2023-07-20T00:45:06;24.20;85.50
14670;DHT22;7423;48.722;9.350;2023-07-20T00:47:33;24.20;84.80
14670;DHT22;7423;48.722;9.350;2023-07-20T00:50:00;24.10;84.00
14670;DHT22;7423;48.722;9.350;2023-07-20T00:52:28;24.10;84.00
14670;DHT22;7423;48.722;9.350;2023-07-20T00:54:56;24.10;83.10
14670;DHT22;7423;48.722;9.350;2023-07-20T00:57:24;24.10;82.80
14670;DHT22;7423;48.722;9.350;2023-07-20T00:59:52;24.20;82.90
14670;DHT22;7423;48.722;9.350;2023-07-20T01:02:19;24.10;82.80
14670;DHT22;7423;48.722;9.350;2023-07-20T01:04:47;24.00;82.70
14670;DHT22;7423;48.722;9.350;2023-07-20T01:07:25;24.10;82.80
14670;DHT22;7423;48.722;9.350;2023-07-20T01:12:41;23.90;83.50
14670;DHT22;7423;48.722;9.350;2023-07-20T01:15:09;23.90;83.10
14670;DHT22;7423;48.722;9.350;2023-07-20T01:17:36;23.90;83.40
14670;DHT22;7423;48.722;9.350;2023-07-20T01:20:04;23.90;84.50
14670;DHT22;7423;48.722;9.350;2023-07-20T01:28:48;23.80;85.90
14670;DHT22;7423;48.722;9.350;2023-07-20T01:31:34;23.80;87.00
14670;DHT22;7423;48.722;9.350;2023-07-20T01:34:05;23.60;87.10
14670;DHT22;7423;48.722;9.350;2023-07-20T01:36:36;23.70;87.50
14670;DHT22;7423;48.722;9.350;2023-07-20T01:39:04;23.70;87.80
14670;DHT22;7423;48.722;9.350;2023-07-20T01:41:31;23.70;88.00
14670;DHT22;7423;48.722;9.350;2023-07-20T01:43:59;23.60;87.80
14670;DHT22;7423;48.722;9.350;2023-07-20T01:46:26;23.60;88.20
14670;DHT22;7423;48.722;9.350;2023-07-20T01:48:54;23.60;88.20
14670;DHT22;7423;48.722;9.350;2023-07-20T01:51:21;23.50;88.70
14670;DHT22;7423;48.722;9.350;2023-07-20T01:53:48;23.50;89.00
14670;DHT22;7423;48.722;9.350;2023-07-20T01:56:16;23.50;88.90
14670;DHT22;7423;48.722;9.350;2023-07-20T01:58:43;23.50;88.70
14670;DHT22;7423;48.722;9.350;2023-07-20T02:01:10;23.40;88.70
14670;DHT22;7423;48.722;9.350;2023-07-20T02:03:37;23.40;88.80
14670;DHT22;7423;48.722;9.350;2023-07-20T02:06:04;23.40;88.90
14670;DHT22;7423;48.722;9.350;2023-07-20T02:08:31;23.30;89.00
14670;DHT22;7423;48.722;9.350;2023-07-20T02:10:58;23.30;89.10
14670;DHT22;7423;48.722;9.350;2023-07-20T02:13:24;23.20;89.10
14670;DHT22;7423;48.722;9.350;2023-07-20T02:15:51;23.20;89.10
14670;DHT22;7423;48.722;9.350;2023-07-20T02:18:18;23.20;89.20
14670;DHT22;7423;48.722;9.350;2023-07-20T02:20:45;23.10;89.30
14670;DHT22;7423;48.722;9.350;2023-07-20T02:23:12;23.10;89.10
14670;DHT22;7423;48.722;9.350;2023-07-20T02:25:40;23.10;89.20
14670;DHT22;7423;48.722;9.350;2023-07-20T02:28:07;23.10;89.50
14670;DHT22;7423;48.722;9.350;2023-07-20T02:30:38;23.00;89.50
14670;DHT22;7423;48.722;9.350;2023-07-20T02:33:06;23.00;89.50
14670;DHT22;7423;48.722;9.350;2023-07-20T02:35:33;23.00;89.90
14670;DHT22;7423;48.722;9.350;2023-07-20T02:38:00;22.90;90.00
14670;DHT22;7423;48.722;9.350;2023-07-20T02:40:27;22.90;90.10
14670;DHT22;7423;48.722;9.350;2023-07-20T02:42:54;22.80;90.30
14670;DHT22;7423;48.722;9.350;2023-07-20T02:45:21;22.90;90.30
14670;DHT22;7423;48.722;9.350;2023-07-20T02:47:48;22.80;90.30
14670;DHT22;7423;48.722;9.350;2023-07-20T02:50:15;22.80;90.20
14670;DHT22;7423;48.722;9.350;2023-07-20T02:52:42;22.80;90.30
14670;DHT22;7423;48.722;9.350;2023-07-20T02:55:09;22.70;90.30
14670;DHT22;7423;48.722;9.350;2023-07-20T02:57:36;22.70;90.40
14670;DHT22;7423;48.722;9.350;2023-07-20T03:00:03;22.70;90.90
14670;DHT22;7423;48.722;9.350;2023-07-20T03:02:32;22.70;91.00
14670;DHT22;7423;48.722;9.350;2023-07-20T03:04:59;22.70;90.70
14670;DHT22;7423;48.722;9.350;2023-07-20T03:07:28;22.60;90.90
14670;DHT22;7423;48.722;9.350;2023-07-20T03:09:56;22.50;90.90
14670;DHT22;7423;48.722;9.350;2023-07-20T03:12:23;22.50;91.00
14670;DHT22;7423;48.722;9.350;2023-07-20T03:14:51;22.50;90.90
14670;DHT22;7423;48.722;9.350;2023-07-20T03:17:17;22.50;90.90
14670;DHT22;7423;48.722;9.350;2023-07-20T03:19:44;22.40;90.90
14670;DHT22;7423;48.722;9.350;2023-07-20T03:22:11;22.30;91.00
14670;DHT22;7423;48.722;9.350;2023-07-20T03:24:38;22.40;91.10
14670;DHT22;7423;48.722;9.350;2023-07-20T03:27:05;22.40;91.10
14670;DHT22;7423;48.722;9.350;2023-07-20T03:29:32;22.40;91.20
14670;DHT22;7423;48.722;9.350;2023-07-20T03:31:59;22.30;91.20
14670;DHT22;7423;48.722;9.350;2023-07-20T03:34:26;22.30;91.20
14670;DHT22;7423;48.722;9.350;2023-07-20T03:36:53;22.30;91.20
14670;DHT22;7423;48.722;9.350;2023-07-20T03:39:20;22.30;91.30
14670;DHT22;7423;48.722;9.350;2023-07-20T03:41:48;22.20;91.30
14670;DHT22;7423;48.722;9.350;2023-07-20T03:44:15;22.30;91.80
14670;DHT22;7423;48.722;9.350;2023-07-20T03:46:43;22.50;91.90
14670;DHT22;7423;48.722;9.350;2023-07-20T03:49:10;22.50;91.60
14670;DHT22;7423;48.722;9.350;2023-07-20T03:51:37;22.30;91.90
14670;DHT22;7423;48.722;9.350;2023-07-20T03:54:04;22.20;92.00
14670;DHT22;7423;48.722;9.350;2023-07-20T03:56:31;22.10;92.20
14670;DHT22;7423;48.722;9.350;2023-07-20T03:59:02;22.00;92.70
14670;DHT22;7423;48.722;9.350;2023-07-20T04:01:29;22.00;92.70
14670;DHT22;7423;48.722;9.350;2023-07-20T04:03:56;22.00;92.60
14670;DHT22;7423;48.722;9.350;2023-07-20T04:06:23;22.00;92.60
14670;DHT22;7423;48.722;9.350;2023-07-20T04:08:50;21.90;92.70
14670;DHT22;7423;48.722;9.350;2023-07-20T04:11:17;21.90;92.60
14670;DHT22;7423;48.722;9.350;2023-07-20T04:13:43;21.90;92.80
14670;DHT22;7423;48.722;9.350;2023-07-20T04:16:10;21.90;93.10
14670;DHT22;7423;48.722;9.350;2023-07-20T04:18:37;21.80;93.20
14670;DHT22;7423;48.722;9.350;2023-07-20T04:21:04;21.80;93.40
14670;DHT22;7423;48.722;9.350;2023-07-20T04:23:31;21.70;93.20
14670;DHT22;7423;48.722;9.350;2023-07-20T04:25:58;21.70;93.20
14670;DHT22;7423;48.722;9.350;2023-07-20T04:28:25;21.70;93.30
14670;DHT22;7423;48.722;9.350;2023-07-20T04:30:52;21.70;93.80
14670;DHT22;7423;48.722;9.350;2023-07-20T04:33:19;21.70;94.00
14670;DHT22;7423;48.722;9.350;2023-07-20T04:35:53;21.70;94.00
14670;DHT22;7423;48.722;9.350;2023-07-20T04:38:21;21.70;94.20
14670;DHT22;7423;48.722;9.350;2023-07-20T04:40:49;21.70;94.20
14670;DHT22;7423;48.722;9.350;2023-07-20T04:43:17;21.70;94.30
14670;DHT22;7423;48.722;9.350;2023-07-20T04:45:44;21.70;94.10
14670;DHT22;7423;48.722;9.350;2023-07-20T04:48:14;21.70;94.00
14670;DHT22;7423;48.722;9.350;2023-07-20T04:50:43;21.70;94.10
14670;DHT22;7423;48.722;9.350;2023-07-20T04:53:12;21.70;94.10
14670;DHT22;7423;48.722;9.350;2023-07-20T04:55:40;21.70;94.10
14670;DHT22;7423;48.722;9.350;2023-07-20T04:58:07;21.70;94.10
14670;DHT22;7423;48.722;9.350;2023-07-20T05:00:34;21.70;94.10
14670;DHT22;7423;48.722;9.350;2023-07-20T05:03:01;21.70;94.00
14670;DHT22;7423;48.722;9.350;2023-07-20T05:05:28;21.80;94.10
14670;DHT22;7423;48.722;9.350;2023-07-20T05:07:55;21.70;94.10
14670;DHT22;7423;48.722;9.350;2023-07-20T05:10:22;21.80;93.90
14670;DHT22;7423;48.722;9.350;2023-07-20T05:12:50;21.80;93.90
14670;DHT22;7423;48.722;9.350;2023-07-20T05:15:17;21.80;93.70
14670;DHT22;7423;48.722;9.350;2023-07-20T05:17:44;21.80;93.70
14670;DHT22;7423;48.722;9.350;2023-07-20T05:20:11;21.90;93.70
14670;DHT22;7423;48.722;9.350;2023-07-20T05:22:39;21.90;93.60
14670;DHT22;7423;48.722;9.350;2023-07-20T05:25:10;21.80;93.50
14670;DHT22;7423;48.722;9.350;2023-07-20T05:27:38;21.90;93.60
14670;DHT22;7423;48.722;9.350;2023-07-20T05:30:07;22.00;93.70
14670;DHT22;7423;48.722;9.350;2023-07-20T05:32:34;21.90;93.70
14670;DHT22;7423;48.722;9.350;2023-07-20T05:35:01;21.90;93.70
14670;DHT22;7423;48.722;9.350;2023-07-20T05:37:28;22.10;93.70
14670;DHT22;7423;48.722;9.350;2023-07-20T05:39:55;22.10;93.60
14670;DHT22;7423;48.722;9.350;2023-07-20T05:42:22;22.10;93.90
14670;DHT22;7423;48.722;9.350;2023-07-20T05:44:49;22.10;93.50
14670;DHT22;7423;48.722;9.350;2023-07-20T05:47:19;22.20;93.30
14670;DHT22;7423;48.722;9.350;2023-07-20T05:49:46;22.30;93.10
14670;DHT22;7423;48.722;9.350;2023-07-20T05:52:13;22.20;93.50
14670;DHT22;7423;48.722;9.350;2023-07-20T05:54:40;22.20;93.60
14670;DHT22;7423;48.722;9.350;2023-07-20T05:57:07;22.20;93.60
14670;DHT22;7423;48.722;9.350;2023-07-20T05:59:34;22.20;93.70
14670;DHT22;7423;48.722;9.350;2023-07-20T06:02:02;22.20;93.70
14670;DHT22;7423;48.722;9.350;2023-07-20T06:04:29;22.20;93.70
14670;DHT22;7423;48.722;9.350;2023-07-20T06:06:55;22.20;93.70
14670;DHT22;7423;48.722;9.350;2023-07-20T06:09:22;22.30;93.60
14670;DHT22;7423;48.722;9.350;2023-07-20T06:11:49;22.30;93.70
14670;DHT22;7423;48.722;9.350;2023-07-20T06:14:16;22.40;93.60
14670;DHT22;7423;48.722;9.350;2023-07-20T06:16:44;22.80;93.70
14670;DHT22;7423;48.722;9.350;2023-07-20T06:19:12;22.50;93.60
14670;DHT22;7423;48.722;9.350;2023-07-20T06:21:39;22.50;93.50
14670;DHT22;7423;48.722;9.350;2023-07-20T06:24:06;22.60;93.50
14670;DHT22;7423;48.722;9.350;2023-07-20T06:26:33;22.60;93.40
14670;DHT22;7423;48.722;9.350;2023-07-20T06:29:05;22.60;93.50
14670;DHT22;7423;48.722;9.350;2023-07-20T06:31:38;22.60;93.50
14670;DHT22;7423;48.722;9.350;2023-07-20T06:34:05;22.60;93.50
14670;DHT22;7423;48.722;9.350;2023-07-20T06:36:32;22.70;93.50
14670;DHT22;7423;48.722;9.350;2023-07-20T06:38:59;22.80;93.40
14670;DHT22;7423;48.722;9.350;2023-07-20T06:41:29;23.90;93.50
14670;DHT22;7423;48.722;9.350;2023-07-20T06:43:58;22.80;93.30
14670;DHT22;7423;48.722;9.350;2023-07-20T06:46:26;22.80;93.30
14670;DHT22;7423;48.722;9.350;2023-07-20T06:48:54;22.80;93.30
14670;DHT22;7423;48.722;9.350;2023-07-20T06:51:24;22.80;93.30
14670;DHT22;7423;48.722;9.350;2023-07-20T06:53:51;22.90;93.20
14670;DHT22;7423;48.722;9.350;2023-07-20T06:56:18;23.00;93.10
14670;DHT22;7423;48.722;9.350;2023-07-20T06:58:50;23.00;92.90
14670;DHT22;7423;48.722;9.350;2023-07-20T07:01:17;23.00;92.80
14670;DHT22;7423;48.722;9.350;2023-07-20T07:03:43;23.00;92.70
14670;DHT22;7423;48.722;9.350;2023-07-20T07:06:10;23.00;92.60
14670;DHT22;7423;48.722;9.350;2023-07-20T07:08:37;23.00;92.40
14670;DHT22;7423;48.722;9.350;2023-07-20T07:11:04;23.00;92.50
14670;DHT22;7423;48.722;9.350;2023-07-20T07:13:32;23.10;92.60
14670;DHT22;7423;48.722;9.350;2023-07-20T07:15:58;23.10;92.40
14670;DHT22;7423;48.722;9.350;2023-07-20T07:18:25;23.10;92.60
14670;DHT22;7423;48.722;9.350;2023-07-20T07:20:53;23.10;92.60
14670;DHT22;7423;48.722;9.350;2023-07-20T07:23:20;23.20;92.60
14670;DHT22;7423;48.722;9.350;2023-07-20T07:25:48;23.20;92.60
14670;DHT22;7423;48.722;9.350;2023-07-20T07:28:15;23.20;92.40
14670;DHT22;7423;48.722;9.350;2023-07-20T07:30:42;23.20;92.50
14670;DHT22;7423;48.722;9.350;2023-07-20T07:33:09;23.20;92.60
14670;DHT22;7423;48.722;9.350;2023-07-20T07:35:36;23.10;92.70
14670;DHT22;7423;48.722;9.350;2023-07-20T07:38:03;23.20;92.60
14670;DHT22;7423;48.722;9.350;2023-07-20T07:40:51;23.20;92.50
14670;DHT22;7423;48.722;9.350;2023-07-20T07:43:18;23.20;92.70
14670;DHT22;7423;48.722;9.350;2023-07-20T07:45:45;23.10;92.90
14670;DHT22;7423;48.722;9.350;2023-07-20T07:48:12;23.20;92.90
14670;DHT22;7423;48.722;9.350;2023-07-20T07:50:40;23.20;92.80
14670;DHT22;7423;48.722;9.350;2023-07-20T07:53:08;23.30;92.70
14670;DHT22;7423;48.722;9.350;2023-07-20T07:55:36;23.40;92.70
14670;DHT22;7423;48.722;9.350;2023-07-20T07:58:03;23.40;92.40
14670;DHT22;7423;48.722;9.350;2023-07-20T08:00:30;24.10;92.60
14670;DHT22;7423;48.722;9.350;2023-07-20T08:02:57;23.40;92.60
14670;DHT22;7423;48.722;9.350;2023-07-20T08:05:24;23.40;92.50
14670;DHT22;7423;48.722;9.350;2023-07-20T08:07:52;23.40;92.40
14670;DHT22;7423;48.722;9.350;2023-07-20T08:10:19;23.30;92.40
14670;DHT22;7423;48.722;9.350;2023-07-20T08:12:46;23.40;92.40
14670;DHT22;7423;48.722;9.350;2023-07-20T08:15:13;23.30;92.40
14670;DHT22;7423;48.722;9.350;2023-07-20T08:17:43;23.40;92.70
14670;DHT22;7423;48.722;9.350;2023-07-20T08:20:14;23.30;92.50
14670;DHT22;7423;48.722;9.350;2023-07-20T08:22:42;23.40;92.20
14670;DHT22;7423;48.722;9.350;2023-07-20T08:25:12;23.40;92.50
14670;DHT22;7423;48.722;9.350;2023-07-20T08:27:39;23.40;92.20
14670;DHT22;7423;48.722;9.350;2023-07-20T08:30:07;23.40;92.00
14670;DHT22;7423;48.722;9.350;2023-07-20T08:32:35;23.40;91.80
14670;DHT22;7423;48.722;9.350;2023-07-20T08:35:02;23.30;92.00
14670;DHT22;7423;48.722;9.350;2023-07-20T08:37:29;23.50;92.10
14670;DHT22;7423;48.722;9.350;2023-07-20T08:39:56;23.60;91.60
14670;DHT22;7423;48.722;9.350;2023-07-20T08:42:22;23.60;91.40
14670;DHT22;7423;48.722;9.350;2023-07-20T08:44:50;23.70;91.60
14670;DHT22;7423;48.722;9.350;2023-07-20T08:47:20;23.70;91.60
14670;DHT22;7423;48.722;9.350;2023-07-20T08:49:48;23.60;90.90
14670;DHT22;7423;48.722;9.350;2023-07-20T08:52:16;23.70;90.60
14670;DHT22;7423;48.722;9.350;2023-07-20T08:54:43;23.70;90.60
14670;DHT22;7423;48.722;9.350;2023-07-20T08:57:13;23.70;90.20
14670;DHT22;7423;48.722;9.350;2023-07-20T08:59:41;23.80;90.30
14670;DHT22;7423;48.722;9.350;2023-07-20T09:02:14;23.80;90.60
14670;DHT22;7423;48.722;9.350;2023-07-20T09:04:45;23.80;90.10
14670;DHT22;7423;48.722;9.350;2023-07-20T09:07:13;23.90;88.50
14670;DHT22;7423;48.722;9.350;2023-07-20T09:09:41;24.00;89.20
14670;DHT22;7423;48.722;9.350;2023-07-20T09:12:18;24.00;88.30
14670;DHT22;7423;48.722;9.350;2023-07-20T09:14:45;24.10;87.70
14670;DHT22;7423;48.722;9.350;2023-07-20T09:17:13;24.10;88.10
14670;DHT22;7423;48.722;9.350;2023-07-20T09:19:46;24.20;87.80
14670;DHT22;7423;48.722;9.350;2023-07-20T09:22:14;24.20;87.20
14670;DHT22;7423;48.722;9.350;2023-07-20T09:24:41;24.20;87.90
14670;DHT22;7423;48.722;9.350;2023-07-20T09:27:10;24.30;88.20
14670;DHT22;7423;48.722;9.350;2023-07-20T09:29:51;24.30;87.70
14670;DHT22;7423;48.722;9.350;2023-07-20T09:32:19;24.30;88.20
14670;DHT22;7423;48.722;9.350;2023-07-20T09:34:51;24.30;87.80
14670;DHT22;7423;48.722;9.350;2023-07-20T09:37:22;24.40;87.10
14670;DHT22;7423;48.722;9.350;2023-07-20T09:39:52;24.40;86.90
14670;DHT22;7423;48.722;9.350;2023-07-20T09:42:26;24.40;85.10
14670;DHT22;7423;48.722;9.350;2023-07-20T09:44:56;24.40;85.40
14670;DHT22;7423;48.722;9.350;2023-07-20T09:47:24;24.40;82.80
14670;DHT22;7423;48.722;9.350;2023-07-20T09:49:58;24.60;83.40
14670;DHT22;7423;48.722;9.350;2023-07-20T09:52:31;24.60;84.50
14670;DHT22;7423;48.722;9.350;2023-07-20T09:55:02;24.50;84.50
14670;DHT22;7423;48.722;9.350;2023-07-20T09:57:30;24.60;85.00
14670;DHT22;7423;48.722;9.350;2023-07-20T09:59:59;24.30;85.10
14670;DHT22;7423;48.722;9.350;2023-07-20T10:02:32;24.80;85.20
14670;DHT22;7423;48.722;9.350;2023-07-20T10:05:03;24.70;85.30
14670;DHT22;7423;48.722;9.350;2023-07-20T10:07:36;24.80;84.30
14670;DHT22;7423;48.722;9.350;2023-07-20T10:10:10;24.80;84.30
14670;DHT22;7423;48.722;9.350;2023-07-20T10:12:39;24.80;84.50
14670;DHT22;7423;48.722;9.350;2023-07-20T10:15:20;24.90;84.40
14670;DHT22;7423;48.722;9.350;2023-07-20T10:18:14;25.00;83.70
14670;DHT22;7423;48.722;9.350;2023-07-20T10:20:46;24.90;83.30
14670;DHT22;7423;48.722;9.350;2023-07-20T10:23:16;24.80;83.80
14670;DHT22;7423;48.722;9.350;2023-07-20T10:25:44;24.70;84.10
14670;DHT22;7423;48.722;9.350;2023-07-20T10:28:13;24.80;84.20
14670;DHT22;7423;48.722;9.350;2023-07-20T10:30:41;24.90;84.00
14670;DHT22;7423;48.722;9.350;2023-07-20T10:33:08;25.00;83.30
14670;DHT22;7423;48.722;9.350;2023-07-20T10:36:02;25.00;83.40
14670;DHT22;7423;48.722;9.350;2023-07-20T10:41:34;25.20;81.80
14670;DHT22;7423;48.722;9.350;2023-07-20T10:44:08;25.20;81.50
14670;DHT22;7423;48.722;9.350;2023-07-20T10:49:08;25.20;80.40
14670;DHT22;7423;48.722;9.350;2023-07-20T10:51:56;25.30;79.40
14670;DHT22;7423;48.722;9.350;2023-07-20T10:56:55;25.40;80.00
14670;DHT22;7423;48.722;9.350;2023-07-20T11:01:54;25.70;80.70
14670;DHT22;7423;48.722;9.350;2023-07-20T11:04:39;25.60;81.30
14670;DHT22;7423;48.722;9.350;2023-07-20T11:07:07;25.70;80.20
14670;DHT22;7423;48.722;9.350;2023-07-20T11:09:38;25.60;80.10
14670;DHT22;7423;48.722;9.350;2023-07-20T11:12:15;25.60;79.40
14670;DHT22;7423;48.722;9.350;2023-07-20T11:14:54;25.70;78.80
14670;DHT22;7423;48.722;9.350;2023-07-20T11:17:30;25.80;79.00
14670;DHT22;7423;48.722;9.350;2023-07-20T11:19:58;25.80;77.60
14670;DHT22;7423;48.722;9.350;2023-07-20T11:22:32;25.90;77.20
14670;DHT22;7423;48.722;9.350;2023-07-20T11:25:00;25.90;78.00
14670;DHT22;7423;48.722;9.350;2023-07-20T11:27:27;25.90;78.60
14670;DHT22;7423;48.722;9.350;2023-07-20T11:29:55;26.00;78.60
14670;DHT22;7423;48.722;9.350;2023-07-20T11:32:23;26.00;77.60
14670;DHT22;7423;48.722;9.350;2023-07-20T11:34:51;26.10;77.60
14670;DHT22;7423;48.722;9.350;2023-07-20T11:37:18;26.30;76.40
14670;DHT22;7423;48.722;9.350;2023-07-20T11:39:45;26.30;76.20
14670;DHT22;7423;48.722;9.350;2023-07-20T11:42:13;26.40;75.50
14670;DHT22;7423;48.722;9.350;2023-07-20T11:45:03;26.50;75.90
14670;DHT22;7423;48.722;9.350;2023-07-20T11:47:31;26.40;74.80
14670;DHT22;7423;48.722;9.350;2023-07-20T11:50:03;26.40;74.70
14670;DHT22;7423;48.722;9.350;2023-07-20T11:52:31;26.60;74.70
14670;DHT22;7423;48.722;9.350;2023-07-20T11:54:58;26.70;74.80
14670;DHT22;7423;48.722;9.350;2023-07-20T11:57:25;26.90;73.40
14670;DHT22;7423;48.722;9.350;2023-07-20T11:59:54;27.10;72.20
14670;DHT22;7423;48.722;9.350;2023-07-20T12:02:27;27.00;71.60
14670;DHT22;7423;48.722;9.350;2023-07-20T12:04:55;27.10;72.50
14670;DHT22;7423;48.722;9.350;2023-07-20T12:07:22;27.30;72.10
14670;DHT22;7423;48.722;9.350;2023-07-20T12:10:12;27.40;71.90
14670;DHT22;7423;48.722;9.350;2023-07-20T12:12:40;27.40;70.80
14670;DHT22;7423;48.722;9.350;2023-07-20T12:15:15;27.50;71.70
14670;DHT22;7423;48.722;9.350;2023-07-20T12:17:51;27.50;69.40
14670;DHT22;7423;48.722;9.350;2023-07-20T12:20:29;27.40;69.90
14670;DHT22;7423;48.722;9.350;2023-07-20T12:23:09;27.60;69.80
14670;DHT22;7423;48.722;9.350;2023-07-20T12:25:42;27.80;68.80
14670;DHT22;7423;48.722;9.350;2023-07-20T12:28:15;27.80;69.50
14670;DHT22;7423;48.722;9.350;2023-07-20T12:30:47;27.80;68.50
14670;DHT22;7423;48.722;9.350;2023-07-20T12:33:23;27.80;68.40
14670;DHT22;7423;48.722;9.350;2023-07-20T12:35:50;27.90;68.40
14670;DHT22;7423;48.722;9.350;2023-07-20T12:38:17;27.90;68.60
14670;DHT22;7423;48.722;9.350;2023-07-20T12:40:44;28.00;68.90
14670;DHT22;7423;48.722;9.350;2023-07-20T12:43:11;28.00;69.30
14670;DHT22;7423;48.722;9.350;2023-07-20T12:45:38;28.00;69.10
14670;DHT22;7423;48.722;9.350;2023-07-20T12:48:05;27.90;67.10
14670;DHT22;7423;48.722;9.350;2023-07-20T12:50:32;27.70;67.10
14670;DHT22;7423;48.722;9.350;2023-07-20T12:52:59;27.60;67.40
14670;DHT22;7423;48.722;9.350;2023-07-20T12:55:26;27.60;68.60
14670;DHT22;7423;48.722;9.350;2023-07-20T12:57:53;27.60;67.40
14670;DHT22;7423;48.722;9.350;2023-07-20T13:00:19;27.70;67.80
14670;DHT22;7423;48.722;9.350;2023-07-20T13:02:46;27.70;69.20
14670;DHT22;7423;48.722;9.350;2023-07-20T13:05:14;27.60;67.30
14670;DHT22;7423;48.722;9.350;2023-07-20T13:07:41;27.60;67.30
14670;DHT22;7423;48.722;9.350;2023-07-20T13:10:11;27.60;67.90
14670;DHT22;7423;48.722;9.350;2023-07-20T13:12:38;27.50;66.90
14670;DHT22;7423;48.722;9.350;2023-07-20T13:15:07;27.60;66.70
14670;DHT22;7423;48.722;9.350;2023-07-20T13:17:36;27.50;66.60
14670;DHT22;7423;48.722;9.350;2023-07-20T13:20:07;27.60;68.00
14670;DHT22;7423;48.722;9.350;2023-07-20T13:22:37;27.60;67.40
14670;DHT22;7423;48.722;9.350;2023-07-20T13:25:04;27.60;67.00
14670;DHT22;7423;48.722;9.350;2023-07-20T13:27:33;27.70;67.20
14670;DHT22;7423;48.722;9.350;2023-07-20T13:30:00;27.60;66.50
14670;DHT22;7423;48.722;9.350;2023-07-20T13:32:29;27.70;67.00
14670;DHT22;7423;48.722;9.350;2023-07-20T13:35:00;27.70;67.20
14670;DHT22;7423;48.722;9.350;2023-07-20T13:37:28;27.60;66.80
14670;DHT22;7423;48.722;9.350;2023-07-20T13:39:55;27.70;68.00
14670;DHT22;7423;48.722;9.350;2023-07-20T13:42:23;27.60;66.60
14670;DHT22;7423;48.722;9.350;2023-07-20T13:44:50;27.60;66.90
14670;DHT22;7423;48.722;9.350;2023-07-20T13:47:17;27.60;66.90
14670;DHT22;7423;48.722;9.350;2023-07-20T13:49:47;27.60;66.70
14670;DHT22;7423;48.722;9.350;2023-07-20T13:52:14;27.50;66.40
14670;DHT22;7423;48.722;9.350;2023-07-20T13:54:44;27.50;66.30
14670;DHT22;7423;48.722;9.350;2023-07-20T13:57:14;27.60;66.20
14670;DHT22;7423;48.722;9.350;2023-07-20T13:59:42;27.60;66.20
14670;DHT22;7423;48.722;9.350;2023-07-20T14:02:10;27.60;66.20
14670;DHT22;7423;48.722;9.350;2023-07-20T14:04:40;27.50;66.20
14670;DHT22;7423;48.722;9.350;2023-07-20T14:07:08;27.60;65.70
14670;DHT22;7423;48.722;9.350;2023-07-20T14:09:35;27.50;65.50
14670;DHT22;7423;48.722;9.350;2023-07-20T14:12:02;27.70;66.50
14670;DHT22;7423;48.722;9.350;2023-07-20T14:14:33;27.60;65.20
14670;DHT22;7423;48.722;9.350;2023-07-20T14:17:00;27.50;64.80
14670;DHT22;7423;48.722;9.350;2023-07-20T14:19:26;27.40;65.00
14670;DHT22;7423;48.722;9.350;2023-07-20T14:21:53;27.50;64.80
14670;DHT22;7423;48.722;9.350;2023-07-20T14:24:21;27.50;65.10
14670;DHT22;7423;48.722;9.350;2023-07-20T14:26:48;27.60;65.50
14670;DHT22;7423;48.722;9.350;2023-07-20T14:29:18;27.70;66.30
14670;DHT22;7423;48.722;9.350;2023-07-20T14:31:45;27.60;63.90
14670;DHT22;7423;48.722;9.350;2023-07-20T14:34:19;27.60;64.30
14670;DHT22;7423;48.722;9.350;2023-07-20T14:36:46;27.70;64.80
14670;DHT22;7423;48.722;9.350;2023-07-20T14:39:13;27.70;64.40
14670;DHT22;7423;48.722;9.350;2023-07-20T14:41:40;27.70;64.80
14670;DHT22;7423;48.722;9.350;2023-07-20T14:44:06;27.60;64.60
14670;DHT22;7423;48.722;9.350;2023-07-20T14:46:33;27.70;64.70
14670;DHT22;7423;48.722;9.350;2023-07-20T14:49:00;27.60;64.10
14670;DHT22;7423;48.722;9.350;2023-07-20T14:51:28;27.60;64.70
14670;DHT22;7423;48.722;9.350;2023-07-20T14:54:02;27.50;63.80
14670;DHT22;7423;48.722;9.350;2023-07-20T14:56:29;27.60;63.60
14670;DHT22;7423;48.722;9.350;2023-07-20T14:58:56;27.70;63.70
14670;DHT22;7423;48.722;9.350;2023-07-20T15:01:24;27.70;63.70
14670;DHT22;7423;48.722;9.350;2023-07-20T15:03:51;27.70;63.60
14670;DHT22;7423;48.722;9.350;2023-07-20T15:06:23;27.70;63.70
14670;DHT22;7423;48.722;9.350;2023-07-20T15:08:52;27.80;64.10
14670;DHT22;7423;48.722;9.350;2023-07-20T15:11:18;27.80;63.80
14670;DHT22;7423;48.722;9.350;2023-07-20T15:13:45;27.90;64.00
14670;DHT22;7423;48.722;9.350;2023-07-20T15:16:12;27.80;62.70
14670;DHT22;7423;48.722;9.350;2023-07-20T15:18:39;27.60;63.00
14670;DHT22;7423;48.722;9.350;2023-07-20T15:21:14;27.70;63.90
14670;DHT22;7423;48.722;9.350;2023-07-20T15:23:42;27.90;63.40
14670;DHT22;7423;48.722;9.350;2023-07-20T15:26:10;27.80;63.20
14670;DHT22;7423;48.722;9.350;2023-07-20T15:28:40;27.90;63.10
14670;DHT22;7423;48.722;9.350;2023-07-20T15:31:07;27.90;62.50
14670;DHT22;7423;48.722;9.350;2023-07-20T15:33:34;27.90;63.10
14670;DHT22;7423;48.722;9.350;2023-07-20T15:36:01;27.90;62.40
14670;DHT22;7423;48.722;9.350;2023-07-20T15:38:28;27.80;61.50
14670;DHT22;7423;48.722;9.350;2023-07-20T15:40:55;27.70;61.70
14670;DHT22;7423;48.722;9.350;2023-07-20T15:43:23;27.70;61.90
14670;DHT22;7423;48.722;9.350;2023-07-20T15:45:51;27.70;61.50
14670;DHT22;7423;48.722;9.350;2023-07-20T15:48:31;27.70;61.60
14670;DHT22;7423;48.722;9.350;2023-07-20T15:50:58;27.70;61.50
14670;DHT22;7423;48.722;9.350;2023-07-20T15:53:28;27.60;60.70
14670;DHT22;7423;48.722;9.350;2023-07-20T15:55:55;27.80;60.80
14670;DHT22;7423;48.722;9.350;2023-07-20T15:58:22;27.80;60.30
14670;DHT22;7423;48.722;9.350;2023-07-20T16:00:53;27.90;60.80
14670;DHT22;7423;48.722;9.350;2023-07-20T16:03:22;27.90;60.80
14670;DHT22;7423;48.722;9.350;2023-07-20T16:05:52;27.90;61.20
14670;DHT22;7423;48.722;9.350;2023-07-20T16:08:19;27.90;60.50
14670;DHT22;7423;48.722;9.350;2023-07-20T16:10:46;28.00;60.20
14670;DHT22;7423;48.722;9.350;2023-07-20T16:13:13;27.80;60.50